Grandes-Bergeronnes, Canada
Current Conditions -  °F | °C
As of 6:00 AM on Sunday 23 Nov 2014 (Local Time) from CYYY Reporting Station
Light Snow Light Snow  
Wind Chill: 26°   Ceiling: 2600
Heat Index: 36°   Visibility: 15mi
Dew Point: 28°   Wind: 15mph
Humidity: 75%   Direction: 230°SW
Pressure: 29.79"   Gusts: 22mph
Location:  48.25°N, 69.55°W
Report Text: CYYY 231100Z 23013G19KT 15SM -SN BKN026 OVC050 02/M02 A2979 RMK SC7SC1 SLP091
Loading
Personal Weather Stations






























Interactive Weather Map New forecast layout! Learn more

10-Day Weather Forecast

Advertisements
Track Severe Weather on mobile